sensor_id;sensor_type;location;lat;lon;timestamp;pressure;altitude;pressure_sealevel;temperature;humidity
55914;BME280;58179;48.776;9.124;2023-12-22T00:00:32;96107.06;;;5.16;100.00
55914;BME280;58179;48.776;9.124;2023-12-22T00:02:58;96108.94;;;5.21;100.00
55914;BME280;58179;48.776;9.124;2023-12-22T00:05:25;96105.03;;;5.23;100.00
55914;BME280;58179;48.776;9.124;2023-12-22T00:07:52;96082.50;;;5.27;100.00
55914;BME280;58179;48.776;9.124;2023-12-22T00:10:18;96068.63;;;5.32;100.00
55914;BME280;58179;48.776;9.124;2023-12-22T00:12:44;96103.56;;;5.37;100.00
55914;BME280;58179;48.776;9.124;2023-12-22T00:15:10;96107.03;;;5.43;100.00
55914;BME280;58179;48.776;9.124;2023-12-22T00:17:36;96101.28;;;5.46;100.00
55914;BME280;58179;48.776;9.124;2023-12-22T00:20:03;96089.78;;;5.52;100.00
55914;BME280;58179;48.776;9.124;2023-12-22T00:22:30;96094.78;;;5.54;100.00
55914;BME280;58179;48.776;9.124;2023-12-22T00:24:56;96049.66;;;5.57;100.00
55914;BME280;58179;48.776;9.124;2023-12-22T00:27:22;96078.03;;;5.60;100.00
55914;BME280;58179;48.776;9.124;2023-12-22T00:29:49;96072.78;;;5.60;100.00
55914;BME280;58179;48.776;9.124;2023-12-22T00:32:15;96079.88;;;5.59;100.00
55914;BME280;58179;48.776;9.124;2023-12-22T00:34:41;96081.22;;;5.62;100.00
55914;BME280;58179;48.776;9.124;2023-12-22T00:37:07;96110.88;;;5.62;100.00
55914;BME280;58179;48.776;9.124;2023-12-22T00:39:35;96128.22;;;5.63;100.00
55914;BME280;58179;48.776;9.124;2023-12-22T00:42:01;96152.09;;;5.62;100.00
55914;BME280;58179;48.776;9.124;2023-12-22T00:44:29;96141.84;;;5.60;100.00
55914;BME280;58179;48.776;9.124;2023-12-22T00:46:56;96161.47;;;5.58;100.00
55914;BME280;58179;48.776;9.124;2023-12-22T00:49:22;96152.28;;;5.55;100.00
55914;BME280;58179;48.776;9.124;2023-12-22T00:51:48;96166.94;;;5.51;100.00
55914;BME280;58179;48.776;9.124;2023-12-22T00:54:14;96151.44;;;5.50;100.00
55914;BME280;58179;48.776;9.124;2023-12-22T00:56:41;96153.53;;;5.48;100.00
55914;BME280;58179;48.776;9.124;2023-12-22T00:59:08;96175.56;;;5.47;100.00
55914;BME280;58179;48.776;9.124;2023-12-22T01:01:34;96164.28;;;5.46;100.00
55914;BME280;58179;48.776;9.124;2023-12-22T01:04:00;96144.31;;;5.45;100.00
55914;BME280;58179;48.776;9.124;2023-12-22T01:06:26;96152.44;;;5.43;100.00
55914;BME280;58179;48.776;9.124;2023-12-22T01:08:52;96142.97;;;5.42;100.00
55914;BME280;58179;48.776;9.124;2023-12-22T01:11:19;96141.66;;;5.40;100.00
55914;BME280;58179;48.776;9.124;2023-12-22T01:13:46;96133.22;;;5.38;100.00
55914;BME280;58179;48.776;9.124;2023-12-22T01:16:12;96130.06;;;5.36;100.00
55914;BME280;58179;48.776;9.124;2023-12-22T01:18:38;96128.75;;;5.33;100.00
55914;BME280;58179;48.776;9.124;2023-12-22T01:21:08;96125.81;;;5.30;100.00
55914;BME280;58179;48.776;9.124;2023-12-22T01:23:34;96120.56;;;5.30;100.00
55914;BME280;58179;48.776;9.124;2023-12-22T01:26:00;96124.72;;;5.26;100.00
55914;BME280;58179;48.776;9.124;2023-12-22T01:28:26;96135.22;;;5.26;100.00
55914;BME280;58179;48.776;9.124;2023-12-22T01:30:54;96107.13;;;5.26;100.00
55914;BME280;58179;48.776;9.124;2023-12-22T01:33:20;96113.69;;;5.24;100.00
55914;BME280;58179;48.776;9.124;2023-12-22T01:35:46;96107.66;;;5.23;100.00
55914;BME280;58179;48.776;9.124;2023-12-22T01:38:12;96128.09;;;5.21;100.00
55914;BME280;58179;48.776;9.124;2023-12-22T01:40:38;96139.09;;;5.18;100.00
55914;BME280;58179;48.776;9.124;2023-12-22T01:43:05;96150.38;;;5.19;100.00
55914;BME280;58179;48.776;9.124;2023-12-22T01:45:31;96134.31;;;5.15;100.00
55914;BME280;58179;48.776;9.124;2023-12-22T01:47:58;96152.94;;;5.14;100.00
55914;BME280;58179;48.776;9.124;2023-12-22T01:50:26;96164.72;;;5.11;100.00
55914;BME280;58179;48.776;9.124;2023-12-22T01:52:52;96183.38;;;5.15;100.00
55914;BME280;58179;48.776;9.124;2023-12-22T01:55:19;96165.56;;;5.17;100.00
55914;BME280;58179;48.776;9.124;2023-12-22T01:57:45;96184.41;;;5.14;100.00
55914;BME280;58179;48.776;9.124;2023-12-22T02:00:13;96180.19;;;5.13;100.00
55914;BME280;58179;48.776;9.124;2023-12-22T02:02:41;96177.56;;;5.13;100.00
55914;BME280;58179;48.776;9.124;2023-12-22T02:05:10;96179.66;;;5.11;100.00
55914;BME280;58179;48.776;9.124;2023-12-22T02:07:38;96178.56;;;5.06;100.00
55914;BME280;58179;48.776;9.124;2023-12-22T02:10:06;96179.34;;;5.07;100.00
55914;BME280;58179;48.776;9.124;2023-12-22T02:12:33;96169.09;;;5.05;100.00
55914;BME280;58179;48.776;9.124;2023-12-22T02:14:59;96173.53;;;5.05;100.00
55914;BME280;58179;48.776;9.124;2023-12-22T02:17:29;96165.88;;;4.98;100.00
55914;BME280;58179;48.776;9.124;2023-12-22T02:19:59;96165.88;;;4.98;100.00
55914;BME280;58179;48.776;9.124;2023-12-22T02:22:33;96190.81;;;5.01;100.00
55914;BME280;58179;48.776;9.124;2023-12-22T02:24:59;96195.75;;;4.97;100.00
55914;BME280;58179;48.776;9.124;2023-12-22T02:27:32;96182.97;;;5.01;100.00
55914;BME280;58179;48.776;9.124;2023-12-22T02:30:03;96181.13;;;5.01;100.00
55914;BME280;58179;48.776;9.124;2023-12-22T02:32:34;96179.31;;;5.02;100.00
55914;BME280;58179;48.776;9.124;2023-12-22T02:35:05;96204.22;;;5.04;100.00
55914;BME280;58179;48.776;9.124;2023-12-22T02:37:34;96186.66;;;5.05;100.00
55914;BME280;58179;48.776;9.124;2023-12-22T02:40:02;96202.34;;;5.00;100.00
55914;BME280;58179;48.776;9.124;2023-12-22T02:42:29;96200.53;;;5.00;100.00
55914;BME280;58179;48.776;9.124;2023-12-22T02:44:57;96198.97;;;5.04;100.00
55914;BME280;58179;48.776;9.124;2023-12-22T02:47:23;96175.94;;;5.06;100.00
55914;BME280;58179;48.776;9.124;2023-12-22T02:49:50;96161.22;;;5.05;100.00
55914;BME280;58179;48.776;9.124;2023-12-22T02:52:16;96166.47;;;5.05;100.00
55914;BME280;58179;48.776;9.124;2023-12-22T02:54:43;96177.84;;;5.11;100.00
55914;BME280;58179;48.776;9.124;2023-12-22T02:57:09;96157.88;;;5.10;100.00
55914;BME280;58179;48.776;9.124;2023-12-22T02:59:37;96171.00;;;5.10;100.00
55914;BME280;58179;48.776;9.124;2023-12-22T03:02:03;96165.19;;;5.08;100.00
55914;BME280;58179;48.776;9.124;2023-12-22T03:04:29;96182.81;;;5.13;100.00
55914;BME280;58179;48.776;9.124;2023-12-22T03:06:55;96161.31;;;5.11;100.00
55914;BME280;58179;48.776;9.124;2023-12-22T03:09:22;96169.41;;;5.09;100.00
55914;BME280;58179;48.776;9.124;2023-12-22T03:11:49;96175.50;;;5.15;100.00
55914;BME280;58179;48.776;9.124;2023-12-22T03:14:17;96167.63;;;5.15;100.00
55914;BME280;58179;48.776;9.124;2023-12-22T03:16:43;96160.25;;;5.12;100.00
55914;BME280;58179;48.776;9.124;2023-12-22T03:19:10;96152.69;;;5.15;100.00
55914;BME280;58179;48.776;9.124;2023-12-22T03:21:36;96169.78;;;5.18;100.00
55914;BME280;58179;48.776;9.124;2023-12-22T03:24:02;96178.97;;;5.20;100.00
55914;BME280;58179;48.776;9.124;2023-12-22T03:26:28;96179.47;;;5.17;100.00
55914;BME280;58179;48.776;9.124;2023-12-22T03:28:56;96177.63;;;5.18;100.00
55914;BME280;58179;48.776;9.124;2023-12-22T03:31:22;96189.97;;;5.17;100.00
55914;BME280;58179;48.776;9.124;2023-12-22T03:33:48;96180.00;;;5.19;100.00
55914;BME280;58179;48.776;9.124;2023-12-22T03:36:14;96188.94;;;5.18;100.00
55914;BME280;58179;48.776;9.124;2023-12-22T03:38:40;96199.72;;;5.22;100.00
55914;BME280;58179;48.776;9.124;2023-12-22T03:41:06;96198.44;;;5.24;100.00
55914;BME280;58179;48.776;9.124;2023-12-22T03:43:32;96189.78;;;5.24;100.00
55914;BME280;58179;48.776;9.124;2023-12-22T03:46:01;96203.97;;;5.28;100.00
55914;BME280;58179;48.776;9.124;2023-12-22T03:48:27;96189.34;;;5.32;100.00
55914;BME280;58179;48.776;9.124;2023-12-22T03:50:53;96207.47;;;5.33;100.00
55914;BME280;58179;48.776;9.124;2023-12-22T03:53:19;96240.22;;;5.31;100.00
55914;BME280;58179;48.776;9.124;2023-12-22T03:55:46;96220.25;;;5.30;100.00
55914;BME280;58179;48.776;9.124;2023-12-22T03:58:12;96191.03;;;5.21;100.00
55914;BME280;58179;48.776;9.124;2023-12-22T04:00:38;96188.56;;;5.10;100.00
55914;BME280;58179;48.776;9.124;2023-12-22T04:03:06;96195.56;;;5.04;100.00
55914;BME280;58179;48.776;9.124;2023-12-22T04:05:32;96214.91;;;4.98;100.00
55914;BME280;58179;48.776;9.124;2023-12-22T04:07:58;96220.66;;;4.95;100.00
55914;BME280;58179;48.776;9.124;2023-12-22T04:10:24;96213.50;;;4.90;100.00
55914;BME280;58179;48.776;9.124;2023-12-22T04:12:50;96211.38;;;4.87;100.00
55914;BME280;58179;48.776;9.124;2023-12-22T04:15:16;96208.44;;;4.84;100.00
55914;BME280;58179;48.776;9.124;2023-12-22T04:17:42;96237.22;;;4.79;100.00
55914;BME280;58179;48.776;9.124;2023-12-22T04:20:10;96198.38;;;4.76;100.00
55914;BME280;58179;48.776;9.124;2023-12-22T04:22:36;96204.91;;;4.73;100.00
55914;BME280;58179;48.776;9.124;2023-12-22T04:25:03;96206.97;;;4.71;100.00
55914;BME280;58179;48.776;9.124;2023-12-22T04:27:29;96199.59;;;4.68;100.00
55914;BME280;58179;48.776;9.124;2023-12-22T04:29:56;96212.91;;;4.66;100.00
55914;BME280;58179;48.776;9.124;2023-12-22T04:32:22;96206.91;;;4.66;100.00
55914;BME280;58179;48.776;9.124;2023-12-22T04:34:48;96218.44;;;4.65;100.00
55914;BME280;58179;48.776;9.124;2023-12-22T04:37:18;96241.22;;;4.64;100.00
55914;BME280;58179;48.776;9.124;2023-12-22T04:39:44;96223.91;;;4.63;100.00
55914;BME280;58179;48.776;9.124;2023-12-22T04:42:10;96232.56;;;4.64;100.00
55914;BME280;58179;48.776;9.124;2023-12-22T04:44:36;96234.16;;;4.65;100.00
55914;BME280;58179;48.776;9.124;2023-12-22T04:47:02;96215.53;;;4.66;100.00
55914;BME280;58179;48.776;9.124;2023-12-22T04:49:29;96208.00;;;4.70;100.00
55914;BME280;58179;48.776;9.124;2023-12-22T04:51:55;96237.94;;;4.74;100.00
55914;BME280;58179;48.776;9.124;2023-12-22T04:54:22;96215.69;;;4.77;100.00
55914;BME280;58179;48.776;9.124;2023-12-22T04:56:48;96253.97;;;4.78;100.00
55914;BME280;58179;48.776;9.124;2023-12-22T04:59:14;96225.44;;;4.81;100.00
55914;BME280;58179;48.776;9.124;2023-12-22T05:01:41;96221.00;;;4.82;100.00
55914;BME280;58179;48.776;9.124;2023-12-22T05:04:08;96226.22;;;4.82;100.00
55914;BME280;58179;48.776;9.124;2023-12-22T05:06:35;96225.19;;;4.83;100.00
55914;BME280;58179;48.776;9.124;2023-12-22T05:09:01;96232.81;;;4.84;100.00
55914;BME280;58179;48.776;9.124;2023-12-22T05:11:29;96241.00;;;4.88;100.00
55914;BME280;58179;48.776;9.124;2023-12-22T05:13:56;96239.41;;;4.87;100.00
55914;BME280;58179;48.776;9.124;2023-12-22T05:16:22;96258.06;;;4.90;100.00
55914;BME280;58179;48.776;9.124;2023-12-22T05:18:48;96239.25;;;4.93;100.00
55914;BME280;58179;48.776;9.124;2023-12-22T05:21:14;96281.19;;;4.93;100.00
55914;BME280;58179;48.776;9.124;2023-12-22T05:23:40;96258.94;;;4.96;100.00
55914;BME280;58179;48.776;9.124;2023-12-22T05:26:07;96257.88;;;4.97;100.00
55914;BME280;58179;48.776;9.124;2023-12-22T05:28:35;96258.16;;;4.95;100.00
55914;BME280;58179;48.776;9.124;2023-12-22T05:31:01;96268.69;;;5.00;100.00
55914;BME280;58179;48.776;9.124;2023-12-22T05:33:27;96256.16;;;5.02;100.00
55914;BME280;58179;48.776;9.124;2023-12-22T05:35:53;96258.44;;;4.99;100.00
55914;BME280;58179;48.776;9.124;2023-12-22T05:38:19;96273.63;;;4.97;100.00
55914;BME280;58179;48.776;9.124;2023-12-22T05:40:46;96273.34;;;4.93;100.00
55914;BME280;58179;48.776;9.124;2023-12-22T05:43:12;96278.25;;;4.90;100.00
55914;BME280;58179;48.776;9.124;2023-12-22T05:45:40;96279.00;;;4.85;100.00
55914;BME280;58179;48.776;9.124;2023-12-22T05:48:07;96273.19;;;4.83;100.00
55914;BME280;58179;48.776;9.124;2023-12-22T05:50:33;96287.88;;;4.84;100.00
55914;BME280;58179;48.776;9.124;2023-12-22T05:52:59;96295.50;;;4.86;100.00
55914;BME280;58179;48.776;9.124;2023-12-22T05:55:25;96299.16;;;4.85;100.00
55914;BME280;58179;48.776;9.124;2023-12-22T05:57:51;96285.81;;;4.86;100.00
55914;BME280;58179;48.776;9.124;2023-12-22T06:00:18;96306.84;;;4.91;100.00
55914;BME280;58179;48.776;9.124;2023-12-22T06:02:45;96308.50;;;4.97;100.00
55914;BME280;58179;48.776;9.124;2023-12-22T06:05:11;96299.84;;;4.97;100.00
55914;BME280;58179;48.776;9.124;2023-12-22T06:07:38;96310.19;;;5.03;100.00
55914;BME280;58179;48.776;9.124;2023-12-22T06:10:04;96316.75;;;5.06;100.00
55914;BME280;58179;48.776;9.124;2023-12-22T06:12:31;96313.91;;;5.07;100.00
55914;BME280;58179;48.776;9.124;2023-12-22T06:14:57;96321.31;;;5.11;100.00
55914;BME280;58179;48.776;9.124;2023-12-22T06:17:23;96330.44;;;5.08;100.00
55914;BME280;58179;48.776;9.124;2023-12-22T06:19:50;96306.41;;;5.16;100.00
55914;BME280;58179;48.776;9.124;2023-12-22T06:22:16;96314.75;;;5.13;100.00
55914;BME280;58179;48.776;9.124;2023-12-22T06:24:42;96319.28;;;5.18;100.00
55914;BME280;58179;48.776;9.124;2023-12-22T06:27:09;96328.75;;;5.19;100.00
55914;BME280;58179;48.776;9.124;2023-12-22T06:29:35;96337.66;;;5.18;100.00
55914;BME280;58179;48.776;9.124;2023-12-22T06:32:01;96334.53;;;5.21;100.00
55914;BME280;58179;48.776;9.124;2023-12-22T06:34:27;96350.28;;;5.21;100.00
55914;BME280;58179;48.776;9.124;2023-12-22T06:36:55;96354.47;;;5.22;100.00
55914;BME280;58179;48.776;9.124;2023-12-22T06:39:21;96359.50;;;5.23;100.00
55914;BME280;58179;48.776;9.124;2023-12-22T06:41:47;96361.63;;;5.26;100.00
55914;BME280;58179;48.776;9.124;2023-12-22T06:44:13;96365.53;;;5.24;100.00
55914;BME280;58179;48.776;9.124;2023-12-22T06:46:39;96358.22;;;5.26;100.00
55914;BME280;58179;48.776;9.124;2023-12-22T06:49:05;96349.78;;;5.24;100.00
55914;BME280;58179;48.776;9.124;2023-12-22T06:51:32;96384.19;;;5.27;100.00
55914;BME280;58179;48.776;9.124;2023-12-22T06:54:03;96367.66;;;5.27;100.00
55914;BME280;58179;48.776;9.124;2023-12-22T06:56:31;96381.56;;;5.27;100.00
55914;BME280;58179;48.776;9.124;2023-12-22T06:58:58;96372.75;;;5.33;100.00
55914;BME280;58179;48.776;9.124;2023-12-22T07:01:27;96372.50;;;5.35;100.00
55914;BME280;58179;48.776;9.124;2023-12-22T07:03:54;96406.59;;;5.35;100.00
55914;BME280;58179;48.776;9.124;2023-12-22T07:06:21;96376.66;;;5.31;100.00
55914;BME280;58179;48.776;9.124;2023-12-22T07:11:46;96393.09;;;5.26;100.00
55914;BME280;58179;48.776;9.124;2023-12-22T07:14:12;96393.66;;;5.28;100.00
55914;BME280;58179;48.776;9.124;2023-12-22T07:16:39;96410.75;;;5.31;100.00
55914;BME280;58179;48.776;9.124;2023-12-22T07:19:05;96420.75;;;5.34;100.00
55914;BME280;58179;48.776;9.124;2023-12-22T07:21:31;96408.19;;;5.36;100.00
55914;BME280;58179;48.776;9.124;2023-12-22T07:23:58;96413.16;;;5.32;100.00
55914;BME280;58179;48.776;9.124;2023-12-22T07:26:24;96417.38;;;5.33;100.00
55914;BME280;58179;48.776;9.124;2023-12-22T07:28:53;96417.59;;;5.32;100.00
55914;BME280;58179;48.776;9.124;2023-12-22T07:31:20;96411.56;;;5.31;100.00
55914;BME280;58179;48.776;9.124;2023-12-22T07:33:46;96426.50;;;5.31;100.00
55914;BME280;58179;48.776;9.124;2023-12-22T07:36:13;96442.81;;;5.33;100.00
55914;BME280;58179;48.776;9.124;2023-12-22T07:38:39;96434.44;;;5.36;100.00
55914;BME280;58179;48.776;9.124;2023-12-22T07:41:05;96436.84;;;5.37;100.00
55914;BME280;58179;48.776;9.124;2023-12-22T07:43:31;96435.56;;;5.40;100.00
55914;BME280;58179;48.776;9.124;2023-12-22T07:45:59;96420.84;;;5.39;100.00
55914;BME280;58179;48.776;9.124;2023-12-22T07:48:25;96432.66;;;5.41;100.00
55914;BME280;58179;48.776;9.124;2023-12-22T07:50:51;96426.66;;;5.41;100.00
55914;BME280;58179;48.776;9.124;2023-12-22T07:53:17;96420.84;;;5.39;100.00
55914;BME280;58179;48.776;9.124;2023-12-22T07:55:44;96432.13;;;5.39;100.00
55914;BME280;58179;48.776;9.124;2023-12-22T07:58:10;96415.78;;;5.32;100.00
55914;BME280;58179;48.776;9.124;2023-12-22T08:00:36;96426.44;;;5.26;100.00
55914;BME280;58179;48.776;9.124;2023-12-22T08:03:04;96414.75;;;5.17;100.00
55914;BME280;58179;48.776;9.124;2023-12-22T08:05:30;96431.47;;;5.11;100.00
55914;BME280;58179;48.776;9.124;2023-12-22T08:07:57;96422.69;;;5.05;100.00
55914;BME280;58179;48.776;9.124;2023-12-22T08:10:23;96421.59;;;5.01;100.00
55914;BME280;58179;48.776;9.124;2023-12-22T08:12:50;96418.91;;;4.96;100.00
55914;BME280;58179;48.776;9.124;2023-12-22T08:15:16;96425.41;;;4.93;100.00
55914;BME280;58179;48.776;9.124;2023-12-22T08:17:46;96427.25;;;4.93;100.00
55914;BME280;58179;48.776;9.124;2023-12-22T08:20:18;96437.41;;;4.89;100.00
55914;BME280;58179;48.776;9.124;2023-12-22T08:22:45;96432.41;;;4.88;100.00
55914;BME280;58179;48.776;9.124;2023-12-22T08:25:11;96428.19;;;4.87;100.00
55914;BME280;58179;48.776;9.124;2023-12-22T08:27:37;96431.84;;;4.86;100.00
55914;BME280;58179;48.776;9.124;2023-12-22T08:30:04;96442.34;;;4.86;100.00
55914;BME280;58179;48.776;9.124;2023-12-22T08:32:30;96423.75;;;4.87;100.00
55914;BME280;58179;48.776;9.124;2023-12-22T08:34:56;96400.94;;;4.88;100.00
55914;BME280;58179;48.776;9.124;2023-12-22T08:37:24;96427.97;;;4.88;100.00
55914;BME280;58179;48.776;9.124;2023-12-22T08:39:50;96435.56;;;4.90;100.00
55914;BME280;58179;48.776;9.124;2023-12-22T08:42:16;96418.00;;;4.90;100.00
55914;BME280;58179;48.776;9.124;2023-12-22T08:44:43;96433.28;;;4.93;100.00
55914;BME280;58179;48.776;9.124;2023-12-22T08:47:09;96431.22;;;4.95;100.00
55914;BME280;58179;48.776;9.124;2023-12-22T08:49:35;96416.81;;;4.98;100.00
55914;BME280;58179;48.776;9.124;2023-12-22T08:52:01;96411.91;;;5.01;100.00
55914;BME280;58179;48.776;9.124;2023-12-22T08:54:31;96413.50;;;5.02;100.00
55914;BME280;58179;48.776;9.124;2023-12-22T08:56:57;96414.53;;;5.01;100.00
55914;BME280;58179;48.776;9.124;2023-12-22T08:59:23;96415.31;;;5.02;100.00
55914;BME280;58179;48.776;9.124;2023-12-22T09:01:49;96424.28;;;5.06;100.00
55914;BME280;58179;48.776;9.124;2023-12-22T09:04:15;96422.31;;;5.13;100.00
55914;BME280;58179;48.776;9.124;2023-12-22T09:06:42;96439.69;;;5.19;100.00
55914;BME280;58179;48.776;9.124;2023-12-22T09:09:08;96440.25;;;5.21;100.00
55914;BME280;58179;48.776;9.124;2023-12-22T09:11:38;96448.69;;;5.23;100.00
55914;BME280;58179;48.776;9.124;2023-12-22T09:14:05;96437.41;;;5.23;100.00
55914;BME280;58179;48.776;9.124;2023-12-22T09:16:35;96448.19;;;5.26;100.00
55914;BME280;58179;48.776;9.124;2023-12-22T09:19:02;96446.94;;;5.29;100.00
55914;BME280;58179;48.776;9.124;2023-12-22T09:21:28;96447.72;;;5.29;100.00
55914;BME280;58179;48.776;9.124;2023-12-22T09:23:54;96443.50;;;5.28;100.00
55914;BME280;58179;48.776;9.124;2023-12-22T09:26:21;96434.94;;;5.33;100.00
55914;BME280;58179;48.776;9.124;2023-12-22T09:28:49;96443.59;;;5.33;100.00
55914;BME280;58179;48.776;9.124;2023-12-22T09:31:15;96441.28;;;5.37;100.00
55914;BME280;58179;48.776;9.124;2023-12-22T09:33:42;96444.69;;;5.37;100.00
55914;BME280;58179;48.776;9.124;2023-12-22T09:36:09;96439.03;;;5.45;100.00
55914;BME280;58179;48.776;9.124;2023-12-22T09:38:35;96463.75;;;5.50;100.00
55914;BME280;58179;48.776;9.124;2023-12-22T09:41:03;96448.34;;;5.53;100.00
55914;BME280;58179;48.776;9.124;2023-12-22T09:43:29;96462.81;;;5.56;100.00
55914;BME280;58179;48.776;9.124;2023-12-22T09:46:00;96471.22;;;5.58;100.00
55914;BME280;58179;48.776;9.124;2023-12-22T09:48:27;96468.59;;;5.58;100.00
55914;BME280;58179;48.776;9.124;2023-12-22T09:50:54;96481.19;;;5.56;100.00
55914;BME280;58179;48.776;9.124;2023-12-22T09:53:21;96478.88;;;5.59;100.00
55914;BME280;58179;48.776;9.124;2023-12-22T09:55:48;96482.06;;;5.61;100.00
55914;BME280;58179;48.776;9.124;2023-12-22T09:58:15;96482.84;;;5.62;100.00
55914;BME280;58179;48.776;9.124;2023-12-22T10:00:42;96494.38;;;5.61;100.00
55914;BME280;58179;48.776;9.124;2023-12-22T10:03:12;96459.22;;;5.62;100.00
55914;BME280;58179;48.776;9.124;2023-12-22T10:05:40;96488.97;;;5.67;100.00
55914;BME280;58179;48.776;9.124;2023-12-22T10:08:07;96477.91;;;5.65;100.00
55914;BME280;58179;48.776;9.124;2023-12-22T10:10:36;96490.00;;;5.66;100.00
55914;BME280;58179;48.776;9.124;2023-12-22T10:13:03;96463.50;;;5.68;100.00
55914;BME280;58179;48.776;9.124;2023-12-22T10:15:33;96461.66;;;5.68;100.00
55914;BME280;58179;48.776;9.124;2023-12-22T10:17:59;96445.41;;;5.71;100.00
55914;BME280;58179;48.776;9.124;2023-12-22T10:20:27;96436.03;;;5.75;100.00
55914;BME280;58179;48.776;9.124;2023-12-22T10:22:53;96439.94;;;5.73;100.00
55914;BME280;58179;48.776;9.124;2023-12-22T10:25:20;96427.31;;;5.70;100.00
55914;BME280;58179;48.776;9.124;2023-12-22T10:27:53;96433.41;;;5.75;100.00
55914;BME280;58179;48.776;9.124;2023-12-22T10:30:20;96413.75;;;5.78;100.00
55914;BME280;58179;48.776;9.124;2023-12-22T10:32:46;96419.00;;;5.78;100.00
55914;BME280;58179;48.776;9.124;2023-12-22T10:35:12;96426.63;;;5.79;100.00
55914;BME280;58179;48.776;9.124;2023-12-22T10:37:40;96417.19;;;5.78;100.00
55914;BME280;58179;48.776;9.124;2023-12-22T10:40:09;96430.84;;;5.80;100.00
55914;BME280;58179;48.776;9.124;2023-12-22T10:42:35;96404.81;;;5.79;100.00
55914;BME280;58179;48.776;9.124;2023-12-22T10:45:02;96401.94;;;5.80;100.00
55914;BME280;58179;48.776;9.124;2023-12-22T10:47:29;96391.75;;;5.84;100.00
55914;BME280;58179;48.776;9.124;2023-12-22T10:49:55;96385.94;;;5.82;100.00
55914;BME280;58179;48.776;9.124;2023-12-22T10:52:21;96376.81;;;5.84;100.00
55914;BME280;58179;48.776;9.124;2023-12-22T10:54:50;96395.44;;;5.83;100.00
55914;BME280;58179;48.776;9.124;2023-12-22T10:57:18;96376.00;;;5.84;100.00
55914;BME280;58179;48.776;9.124;2023-12-22T10:59:46;96384.38;;;5.81;100.00
55914;BME280;58179;48.776;9.124;2023-12-22T11:02:16;96388.91;;;5.86;100.00
55914;BME280;58179;48.776;9.124;2023-12-22T11:04:50;96389.63;;;5.81;100.00
55914;BME280;58179;48.776;9.124;2023-12-22T11:07:24;96385.72;;;5.83;100.00
55914;BME280;58179;48.776;9.124;2023-12-22T11:09:53;96391.44;;;5.80;100.00
55914;BME280;58179;48.776;9.124;2023-12-22T11:12:23;96374.88;;;5.80;100.00
55914;BME280;58179;48.776;9.124;2023-12-22T11:14:49;96381.94;;;5.74;100.00
55914;BME280;58179;48.776;9.124;2023-12-22T11:17:20;96387.41;;;5.73;100.00
55914;BME280;58179;48.776;9.124;2023-12-22T11:19:48;96379.25;;;5.69;100.00
55914;BME280;58179;48.776;9.124;2023-12-22T11:22:16;96386.81;;;5.66;100.00
55914;BME280;58179;48.776;9.124;2023-12-22T11:24:44;96397.53;;;5.64;100.00
55914;BME280;58179;48.776;9.124;2023-12-22T11:27:13;96382.53;;;5.60;100.00
55914;BME280;58179;48.776;9.124;2023-12-22T11:29:43;96380.66;;;5.55;100.00
55914;BME280;58179;48.776;9.124;2023-12-22T11:32:11;96365.38;;;5.52;100.00
55914;BME280;58179;48.776;9.124;2023-12-22T11:34:43;96371.44;;;5.53;100.00
55914;BME280;58179;48.776;9.124;2023-12-22T11:37:11;96375.31;;;5.50;100.00
55914;BME280;58179;48.776;9.124;2023-12-22T11:39:39;96362.47;;;5.49;100.00
55914;BME280;58179;48.776;9.124;2023-12-22T11:42:07;96360.88;;;5.48;100.00
55914;BME280;58179;48.776;9.124;2023-12-22T11:44:36;96357.44;;;5.47;100.00
55914;BME280;58179;48.776;9.124;2023-12-22T11:47:06;96347.19;;;5.45;100.00
55914;BME280;58179;48.776;9.124;2023-12-22T11:49:33;96342.19;;;5.44;100.00
55914;BME280;58179;48.776;9.124;2023-12-22T11:52:09;96335.09;;;5.44;100.00
55914;BME280;58179;48.776;9.124;2023-12-22T11:54:44;96328.25;;;5.43;100.00
55914;BME280;58179;48.776;9.124;2023-12-22T11:57:32;96320.63;;;5.42;100.00
55914;BME280;58179;48.776;9.124;2023-12-22T12:00:03;96310.41;;;5.40;100.00
55914;BME280;58179;48.776;9.124;2023-12-22T12:02:33;96292.81;;;5.41;100.00
55914;BME280;58179;48.776;9.124;2023-12-22T12:05:01;96297.00;;;5.42;100.00
55914;BME280;58179;48.776;9.124;2023-12-22T12:07:39;96298.84;;;5.41;100.00
55914;BME280;58179;48.776;9.124;2023-12-22T12:10:07;96297.81;;;5.42;100.00
55914;BME280;58179;48.776;9.124;2023-12-22T12:12:33;96285.47;;;5.43;100.00
55914;BME280;58179;48.776;9.124;2023-12-22T12:15:10;96270.28;;;5.45;100.00
55914;BME280;58179;48.776;9.124;2023-12-22T12:17:40;96283.16;;;5.47;100.00
55914;BME280;58179;48.776;9.124;2023-12-22T12:20:07;96281.88;;;5.49;100.00
55914;BME280;58179;48.776;9.124;2023-12-22T12:22:35;96268.50;;;5.51;100.00
55914;BME280;58179;48.776;9.124;2023-12-22T12:25:07;96270.09;;;5.52;100.00
55914;BME280;58179;48.776;9.124;2023-12-22T12:27:35;96252.50;;;5.52;100.00
55914;BME280;58179;48.776;9.124;2023-12-22T12:30:08;96252.22;;;5.49;100.00
55914;BME280;58179;48.776;9.124;2023-12-22T12:32:36;96262.19;;;5.47;100.00
55914;BME280;58179;48.776;9.124;2023-12-22T12:35:03;96255.91;;;5.48;100.00
55914;BME280;58179;48.776;9.124;2023-12-22T12:37:30;96244.84;;;5.45;100.00
55914;BME280;58179;48.776;9.124;2023-12-22T12:39:59;96255.63;;;5.49;100.00
55914;BME280;58179;48.776;9.124;2023-12-22T12:42:31;96249.09;;;5.52;100.00
55914;BME280;58179;48.776;9.124;2023-12-22T12:44:57;96241.53;;;5.55;100.00
55914;BME280;58179;48.776;9.124;2023-12-22T12:47:25;96237.88;;;5.56;100.00
55914;BME280;58179;48.776;9.124;2023-12-22T12:49:57;96248.09;;;5.58;100.00
55914;BME280;58179;48.776;9.124;2023-12-22T12:52:24;96249.69;;;5.59;100.00
55914;BME280;58179;48.776;9.124;2023-12-22T12:54:51;96238.72;;;5.62;100.00
55914;BME280;58179;48.776;9.124;2023-12-22T12:57:18;96240.03;;;5.64;100.00
55914;BME280;58179;48.776;9.124;2023-12-22T12:59:45;96251.09;;;5.66;100.00
55914;BME280;58179;48.776;9.124;2023-12-22T13:02:12;96249.25;;;5.67;100.00